createdAt,value
2023-01-21T07:42:01.253Z,-2.00
2023-01-21T07:44:28.065Z,-2.10
2023-01-21T07:46:54.707Z,-2.10
2023-01-21T07:49:21.364Z,-2.00
2023-01-21T07:51:48.549Z,-2.00
2023-01-21T07:54:15.670Z,-2.00
2023-01-21T07:56:42.532Z,-2.00
2023-01-21T07:59:10.830Z,-2.00
2023-01-21T08:01:37.560Z,-2.00
2023-01-21T08:04:04.687Z,-2.00
2023-01-21T08:06:31.369Z,-2.00
2023-01-21T08:08:58.075Z,-1.90
2023-01-21T08:11:25.069Z,-1.90
2023-01-21T08:13:51.779Z,-1.80
2023-01-21T08:16:18.567Z,-1.80
2023-01-21T08:18:45.248Z,-1.70
2023-01-21T08:21:11.952Z,-1.70
2023-01-21T08:23:38.701Z,-1.60
2023-01-21T08:26:06.628Z,-1.50
2023-01-21T08:28:34.162Z,-1.50
2023-01-21T08:31:06.772Z,-1.50
2023-01-21T08:33:33.795Z,-1.50
2023-01-21T08:36:01.987Z,-1.50
2023-01-21T08:38:29.064Z,-1.40
2023-01-21T08:40:58.316Z,-1.40
2023-01-21T08:43:26.112Z,-1.40
2023-01-21T08:45:56.182Z,-1.40
2023-01-21T08:48:23.091Z,-1.40
2023-01-21T08:50:49.808Z,-1.30
2023-01-21T08:53:16.484Z,-1.30
2023-01-21T08:55:43.232Z,-1.30
2023-01-21T08:58:09.873Z,-1.30
2023-01-21T09:00:36.594Z,-1.30
2023-01-21T09:03:03.398Z,-1.30
2023-01-21T09:05:30.089Z,-1.20
2023-01-21T09:07:58.162Z,-1.20
2023-01-21T09:10:44.014Z,-1.20
2023-01-21T09:13:10.942Z,-1.10
2023-01-21T09:15:40.730Z,-1.10
2023-01-21T09:18:07.737Z,-1.10
2023-01-21T09:20:34.503Z,-1.00
2023-01-21T09:23:01.202Z,-1.10
2023-01-21T09:25:28.016Z,-1.10
2023-01-21T09:27:54.659Z,-1.30
2023-01-21T09:30:21.453Z,-1.30
2023-01-21T09:32:48.183Z,-1.40
2023-01-21T09:35:15.216Z,-1.40
2023-01-21T09:37:42.127Z,-1.30
2023-01-21T09:40:16.206Z,-1.20
2023-01-21T09:42:43.194Z,-1.20
2023-01-21T09:45:15.213Z,-1.10
2023-01-21T09:47:45.097Z,-1.00
2023-01-21T09:50:14.255Z,-1.00
2023-01-21T09:52:45.637Z,-1.00
2023-01-21T09:55:18.863Z,-1.00
2023-01-21T09:58:06.656Z,-1.00
2023-01-21T10:00:57.659Z,-0.90
2023-01-21T10:03:32.873Z,-0.90
2023-01-21T10:06:14.773Z,-0.80
2023-01-21T10:08:56.415Z,-0.80
2023-01-21T10:11:53.874Z,-0.80
2023-01-21T10:14:51.448Z,-0.70
2023-01-21T10:17:56.533Z,-0.70
2023-01-21T10:20:38.656Z,-0.60
2023-01-21T10:23:26.460Z,-0.60
2023-01-21T10:25:53.247Z,-0.60
2023-01-21T10:28:23.477Z,-0.60
2023-01-21T10:30:52.972Z,-0.60
2023-01-21T10:33:26.019Z,-0.50
2023-01-21T10:36:26.202Z,-0.50
2023-01-21T10:39:15.345Z,-0.50
2023-01-21T10:42:10.869Z,-0.50
2023-01-21T10:44:59.724Z,-0.50
2023-01-21T10:47:29.184Z,-0.50
2023-01-21T10:50:36.683Z,-0.60
2023-01-21T10:53:25.263Z,-0.60
2023-01-21T10:56:30.052Z,-0.50
2023-01-21T10:59:06.104Z,-0.50
2023-01-21T11:01:37.267Z,-0.50
2023-01-21T11:04:37.072Z,-0.40
2023-01-21T11:07:07.284Z,-0.50
2023-01-21T11:09:46.808Z,-0.40
2023-01-21T11:12:18.472Z,-0.30
2023-01-21T11:14:55.172Z,-0.20
2023-01-21T11:17:34.629Z,-0.20
2023-01-21T11:20:04.353Z,-0.10
2023-01-21T11:22:32.464Z,0.00
2023-01-21T11:25:00.313Z,0.10
2023-01-21T11:27:34.913Z,0.20
2023-01-21T11:30:02.345Z,0.30
2023-01-21T11:32:30.897Z,0.40
2023-01-21T11:35:10.582Z,0.60
2023-01-21T11:37:38.267Z,0.70
2023-01-21T11:40:22.979Z,0.80
2023-01-21T11:42:52.274Z,0.90
2023-01-21T11:45:31.954Z,1.00
2023-01-21T11:48:00.365Z,1.00
2023-01-21T11:50:35.218Z,1.10
2023-01-21T11:53:11.509Z,1.10
2023-01-21T11:55:51.091Z,1.00
2023-01-21T11:58:30.225Z,0.90
2023-01-21T12:01:02.985Z,0.80
2023-01-21T12:03:42.353Z,0.70
2023-01-21T12:06:16.700Z,0.80
2023-01-21T12:08:45.190Z,0.80
2023-01-21T12:11:23.048Z,0.80
2023-01-21T12:14:03.398Z,0.80
2023-01-21T12:17:11.123Z,0.70
2023-01-21T12:20:18.149Z,0.80
2023-01-21T12:23:20.205Z,0.80
2023-01-21T12:26:11.764Z,0.70
2023-01-21T12:28:57.745Z,0.80
2023-01-21T12:31:37.348Z,0.80
2023-01-21T12:34:19.506Z,0.80
2023-01-21T12:37:09.537Z,0.90
2023-01-21T12:39:41.943Z,0.90
2023-01-21T12:42:23.011Z,1.00
2023-01-21T12:44:55.741Z,1.00
2023-01-21T12:47:25.549Z,1.10
2023-01-21T12:50:28.426Z,1.10
2023-01-21T12:53:26.797Z,1.10
2023-01-21T12:56:09.766Z,1.10
2023-01-21T12:58:45.160Z,1.00
2023-01-21T13:01:22.517Z,1.00
2023-01-21T13:04:33.311Z,0.90
2023-01-21T13:07:18.491Z,0.90
2023-01-21T13:09:58.830Z,0.90
2023-01-21T13:12:27.575Z,0.90
2023-01-21T13:15:20.989Z,0.80
2023-01-21T13:17:55.405Z,0.90
2023-01-21T13:20:22.963Z,0.90
2023-01-21T13:22:55.980Z,0.90
2023-01-21T13:25:40.488Z,0.80
2023-01-21T13:28:15.269Z,0.80
2023-01-21T13:30:49.241Z,0.90
2023-01-21T13:33:41.718Z,0.90
2023-01-21T13:36:26.437Z,0.90
2023-01-21T13:39:11.783Z,1.00
2023-01-21T13:42:10.022Z,1.00
2023-01-21T13:44:56.550Z,1.10
2023-01-21T13:47:38.942Z,1.20
2023-01-21T13:50:21.533Z,1.30
2023-01-21T13:53:15.216Z,1.30
2023-01-21T13:55:56.769Z,1.30
2023-01-21T13:58:36.090Z,1.30
2023-01-21T14:01:17.323Z,1.30
2023-01-21T14:03:55.504Z,1.20
2023-01-21T14:06:50.067Z,1.10
2023-01-21T14:09:26.794Z,1.00
2023-01-21T14:12:02.695Z,1.00
2023-01-21T14:14:49.855Z,1.10
2023-01-21T14:17:31.559Z,1.10
2023-01-21T14:20:29.139Z,1.10
2023-01-21T14:23:22.373Z,1.10
2023-01-21T14:26:13.751Z,1.10
2023-01-21T14:28:53.478Z,1.10
2023-01-21T14:31:30.649Z,1.10
2023-01-21T14:34:26.768Z,1.10
2023-01-21T14:37:06.044Z,1.10
2023-01-21T14:39:52.970Z,1.10
2023-01-21T14:42:26.331Z,1.10
2023-01-21T14:44:53.672Z,1.00
2023-01-21T14:47:24.507Z,0.90
2023-01-21T14:49:53.552Z,0.80
2023-01-21T14:52:27.281Z,0.90
2023-01-21T14:54:54.007Z,0.80
2023-01-21T14:57:28.855Z,0.80
2023-01-21T15:00:03.063Z,0.80
2023-01-21T15:02:37.209Z,0.70
2023-01-21T15:05:24.531Z,0.70
2023-01-21T15:08:09.027Z,0.70
2023-01-21T15:10:38.430Z,0.70
2023-01-21T15:13:21.289Z,0.60
2023-01-21T15:16:15.355Z,0.50
2023-01-21T15:19:04.996Z,0.50
2023-01-21T15:21:40.482Z,0.50
2023-01-21T15:24:24.530Z,0.50
2023-01-21T15:27:13.371Z,0.50
2023-01-21T15:29:53.377Z,0.50
2023-01-21T15:32:31.058Z,0.50
2023-01-21T15:35:20.374Z,0.40
2023-01-21T15:37:51.581Z,0.40
2023-01-21T15:40:35.754Z,0.30
2023-01-21T15:43:25.885Z,0.30
2023-01-21T15:46:02.592Z,0.40
2023-01-21T15:48:50.684Z,0.40
2023-01-21T15:51:38.534Z,0.40
2023-01-21T15:54:17.002Z,0.40
2023-01-21T15:56:49.003Z,0.30
2023-01-21T15:59:35.361Z,0.30
2023-01-21T16:02:19.001Z,0.20
2023-01-21T16:05:04.718Z,0.10
2023-01-21T16:07:58.079Z,0.10
2023-01-21T16:10:46.622Z,0.10
2023-01-21T16:13:44.659Z,0.10
2023-01-21T16:16:33.780Z,0.00
2023-01-21T16:19:08.200Z,0.00
2023-01-21T16:21:37.063Z,-0.10
2023-01-21T16:24:09.925Z,0.00
2023-01-21T16:26:36.912Z,-0.10
2023-01-21T16:29:13.272Z,-0.10
2023-01-21T16:31:59.488Z,-0.20
2023-01-21T16:34:43.399Z,-0.20
2023-01-21T16:37:22.495Z,-0.20
2023-01-21T16:39:52.677Z,-0.20
2023-01-21T16:42:28.839Z,-0.30
2023-01-21T16:44:55.715Z,-0.30
2023-01-21T16:47:33.491Z,-0.30
2023-01-21T16:50:01.791Z,-0.40
2023-01-21T16:52:28.609Z,-0.40
2023-01-21T16:54:55.787Z,-0.40
2023-01-21T16:57:31.592Z,-0.30
2023-01-21T17:00:02.108Z,-0.30
2023-01-21T17:02:33.830Z,-0.30
2023-01-21T17:05:05.118Z,-0.40
2023-01-21T17:07:43.559Z,-0.40
2023-01-21T17:10:26.919Z,-0.50
2023-01-21T17:13:05.625Z,-0.50
2023-01-21T17:15:43.517Z,-0.50
2023-01-21T17:18:27.441Z,-0.60
2023-01-21T17:21:20.226Z,-0.60
2023-01-21T17:23:48.092Z,-0.70
2023-01-21T17:26:22.442Z,-0.60
2023-01-21T17:28:57.696Z,-0.60
2023-01-21T17:31:36.047Z,-0.60
2023-01-21T17:34:10.478Z,-0.60
2023-01-21T17:36:39.075Z,-0.60
2023-01-21T17:39:07.398Z,-0.60
2023-01-21T17:41:37.710Z,-0.60
2023-01-21T17:44:15.353Z,-0.60
2023-01-21T17:46:50.183Z,-0.50
2023-01-21T17:49:19.586Z,-0.50
2023-01-21T17:51:46.821Z,-0.50
2023-01-21T17:54:22.405Z,-0.50
2023-01-21T17:56:51.992Z,-0.50
2023-01-21T17:59:38.142Z,-0.50
2023-01-21T18:02:09.799Z,-0.50
2023-01-21T18:04:36.496Z,-0.60
2023-01-21T18:07:06.352Z,-0.60
2023-01-21T18:09:35.068Z,-0.60
2023-01-21T18:12:01.721Z,-0.60
2023-01-21T18:14:28.817Z,-0.50
2023-01-21T18:16:55.745Z,-0.60
2023-01-21T18:19:29.581Z,-0.60
2023-01-21T18:21:57.084Z,-0.60
2023-01-21T18:24:24.391Z,-0.60
2023-01-21T18:26:51.689Z,-0.60
2023-01-21T18:29:19.456Z,-0.60
2023-01-21T18:31:48.691Z,-0.60
2023-01-21T18:34:15.379Z,-0.60
2023-01-21T18:36:42.327Z,-0.60
2023-01-21T18:39:14.317Z,-0.60
2023-01-21T18:41:41.502Z,-0.60
2023-01-21T18:44:08.716Z,-0.60
2023-01-21T18:46:41.429Z,-0.60
2023-01-21T18:49:16.746Z,-0.60
2023-01-21T18:51:43.743Z,-0.60
2023-01-21T18:54:12.765Z,-0.60
2023-01-21T18:56:40.279Z,-0.70
2023-01-21T18:59:17.144Z,-0.60
2023-01-21T19:01:44.837Z,-0.60
2023-01-21T19:04:15.723Z,-0.60
2023-01-21T19:06:42.835Z,-0.60
2023-01-21T19:09:17.730Z,-0.60
2023-01-21T19:11:44.472Z,-0.70
2023-01-21T19:14:11.109Z,-0.60
2023-01-21T19:16:38.786Z,-0.70
2023-01-21T19:19:16.757Z,-0.70
2023-01-21T19:21:43.510Z,-0.70
2023-01-21T19:24:12.223Z,-0.70
2023-01-21T19:26:39.260Z,-0.70
2023-01-21T19:29:13.919Z,-0.70
2023-01-21T19:31:40.930Z,-0.70
2023-01-21T19:34:09.000Z,-0.60
2023-01-21T19:36:35.723Z,-0.70
2023-01-21T19:39:02.416Z,-0.70
2023-01-21T19:41:29.182Z,-0.70
2023-01-21T19:43:55.827Z,-0.60
2023-01-21T19:46:23.865Z,-0.60
2023-01-21T19:48:53.388Z,-0.60
2023-01-21T19:51:20.197Z,-0.60
2023-01-21T19:53:46.944Z,-0.60
2023-01-21T19:56:19.345Z,-0.60
2023-01-21T19:58:46.096Z,-0.50
2023-01-21T20:01:12.784Z,-0.50
2023-01-21T20:03:48.111Z,-0.50
2023-01-21T20:06:23.272Z,-0.50
2023-01-21T20:08:50.657Z,-0.50
2023-01-21T20:11:17.960Z,-0.50
2023-01-21T20:13:44.633Z,-0.50
2023-01-21T20:16:16.751Z,-0.40
2023-01-21T20:18:46.128Z,-0.40
2023-01-21T20:21:12.876Z,-0.40
2023-01-21T20:23:39.671Z,-0.40
2023-01-21T20:26:10.882Z,-0.40
2023-01-21T20:28:43.294Z,-0.30
2023-01-21T20:31:10.975Z,-0.30
2023-01-21T20:33:38.000Z,-0.30
2023-01-21T20:36:06.748Z,-0.40
2023-01-21T20:38:36.042Z,-0.40
2023-01-21T20:41:04.345Z,-0.50
2023-01-21T20:43:31.325Z,-0.40
2023-01-21T20:46:01.799Z,-0.40
2023-01-21T20:48:30.103Z,-0.40
2023-01-21T20:50:56.837Z,-0.40
2023-01-21T20:53:23.567Z,-0.50
2023-01-21T20:55:51.814Z,-0.40
2023-01-21T20:58:22.129Z,-0.40
2023-01-21T21:00:49.331Z,-0.40
2023-01-21T21:03:17.983Z,-0.40
2023-01-21T21:05:46.014Z,-0.50
2023-01-21T21:08:15.635Z,-0.50
2023-01-21T21:10:42.704Z,-0.50
2023-01-21T21:13:10.427Z,-0.50
2023-01-21T21:15:37.997Z,-0.50
2023-01-21T21:18:05.575Z,-0.50
2023-01-21T21:20:38.755Z,-0.50
2023-01-21T21:23:07.462Z,-0.40
2023-01-21T21:25:41.919Z,-0.40
2023-01-21T21:28:11.002Z,-0.40
2023-01-21T21:30:37.830Z,-0.40
2023-01-21T21:33:04.517Z,-0.40
2023-01-21T21:35:33.842Z,-0.30
2023-01-21T21:38:04.185Z,-0.20
2023-01-21T21:40:30.964Z,-0.20
2023-01-21T21:43:16.991Z,-0.20
2023-01-21T21:46:02.862Z,-0.20
2023-01-21T21:48:39.349Z,-0.20
2023-01-21T21:51:14.408Z,-0.20
2023-01-21T21:53:41.559Z,-0.10
2023-01-21T21:56:19.965Z,-0.10
2023-01-21T21:58:47.484Z,0.00
2023-01-21T22:01:15.948Z,-0.10
2023-01-21T22:03:43.411Z,-0.10
2023-01-21T22:06:11.705Z,-0.10
2023-01-21T22:08:40.333Z,-0.10
2023-01-21T22:11:09.464Z,-0.10
2023-01-21T22:13:40.095Z,-0.10
2023-01-21T22:16:09.805Z,-0.10
2023-01-21T22:18:36.488Z,-0.20
2023-01-21T22:21:06.226Z,-0.10
2023-01-21T22:23:35.330Z,-0.10
2023-01-21T22:26:03.738Z,-0.10
2023-01-21T22:28:30.449Z,-0.10
2023-01-21T22:31:07.559Z,-0.10
2023-01-21T22:33:35.711Z,-0.10
2023-01-21T22:36:03.370Z,-0.10
2023-01-21T22:38:30.141Z,-0.10
2023-01-21T22:40:56.998Z,0.00
2023-01-21T22:43:24.309Z,-0.10
2023-01-21T22:45:51.902Z,-0.10
2023-01-21T22:48:18.599Z,-0.10
2023-01-21T22:50:45.724Z,-0.10
2023-01-21T22:53:13.300Z,-0.10
2023-01-21T22:55:40.223Z,-0.10
2023-01-21T22:58:07.056Z,-0.10
2023-01-21T23:00:41.100Z,-0.10
2023-01-21T23:03:09.501Z,-0.10
2023-01-21T23:05:36.434Z,-0.10
2023-01-21T23:08:03.341Z,0.00
2023-01-21T23:10:30.085Z,-0.10
2023-01-21T23:12:56.770Z,0.00
2023-01-21T23:15:23.984Z,0.00
2023-01-21T23:17:52.853Z,0.00
2023-01-21T23:20:20.828Z,0.00
2023-01-21T23:22:47.745Z,0.00
2023-01-21T23:25:15.076Z,0.10
2023-01-21T23:27:41.838Z,0.10
2023-01-21T23:30:09.769Z,0.10
2023-01-21T23:32:36.454Z,0.10
2023-01-21T23:35:03.151Z,0.10
2023-01-21T23:37:29.893Z,0.20
2023-01-21T23:39:56.526Z,0.10
2023-01-21T23:42:23.765Z,0.10
2023-01-21T23:44:50.781Z,0.20
2023-01-21T23:47:18.058Z,0.10
2023-01-21T23:49:44.803Z,0.20
2023-01-21T23:52:12.484Z,0.10
2023-01-21T23:54:46.060Z,0.10
2023-01-21T23:57:12.822Z,0.20
2023-01-21T23:59:39.556Z,0.10
